Terminal Aerodrome Forecast
Issued by NWS Jackson, MS

Home | Current Version | Previous Version | Text Only | Print | Product List | Glossary On
Versions: 1 2 3 4 5 6 7 8 9 10 11 12 13 14 15 16 17
694
FTUS44 KJAN 061129
TAFMEI
TAF
KMEI 061129Z 0612/0712 28012KT P6SM BKN009
     FM062200 34006KT P6SM OVC007
     FM070600 36004KT 4SM BR OVC007=

USA.gov is the U.S. government's official web portal to all federal, state and local government web resources and services.